sensor_id;sensor_type;location;lat;lon;timestamp;P1;durP1;ratioP1;P2;durP2;ratioP2
47381;SDS011;33128;51.580;5.170;2022-12-18T00:02:18;61.83;;;57.10;;
47381;SDS011;33128;51.580;5.170;2022-12-18T00:04:43;62.28;;;57.97;;
47381;SDS011;33128;51.580;5.170;2022-12-18T00:07:09;61.25;;;57.25;;
47381;SDS011;33128;51.580;5.170;2022-12-18T00:09:35;62.42;;;57.35;;
47381;SDS011;33128;51.580;5.170;2022-12-18T00:12:01;61.22;;;57.15;;
47381;SDS011;33128;51.580;5.170;2022-12-18T00:14:26;62.17;;;57.17;;
47381;SDS011;33128;51.580;5.170;2022-12-18T00:16:52;60.75;;;56.78;;
47381;SDS011;33128;51.580;5.170;2022-12-18T00:19:18;60.10;;;55.70;;
47381;SDS011;33128;51.580;5.170;2022-12-18T00:21:43;60.42;;;56.00;;
47381;SDS011;33128;51.580;5.170;2022-12-18T00:24:09;60.03;;;55.63;;
47381;SDS011;33128;51.580;5.170;2022-12-18T00:26:36;60.42;;;55.60;;
47381;SDS011;33128;51.580;5.170;2022-12-18T00:29:05;61.42;;;56.92;;
47381;SDS011;33128;51.580;5.170;2022-12-18T00:31:32;62.58;;;57.85;;
47381;SDS011;33128;51.580;5.170;2022-12-18T00:33:58;65.47;;;60.03;;
47381;SDS011;33128;51.580;5.170;2022-12-18T00:36:28;63.67;;;58.83;;
47381;SDS011;33128;51.580;5.170;2022-12-18T00:38:56;64.47;;;59.97;;
47381;SDS011;33128;51.580;5.170;2022-12-18T00:41:25;61.20;;;57.28;;
47381;SDS011;33128;51.580;5.170;2022-12-18T00:44:12;62.05;;;56.75;;
47381;SDS011;33128;51.580;5.170;2022-12-18T00:46:39;62.78;;;58.08;;
47381;SDS011;33128;51.580;5.170;2022-12-18T00:49:08;62.65;;;58.08;;
47381;SDS011;33128;51.580;5.170;2022-12-18T00:51:34;65.32;;;60.53;;
47381;SDS011;33128;51.580;5.170;2022-12-18T00:53:59;64.53;;;59.63;;
47381;SDS011;33128;51.580;5.170;2022-12-18T00:56:25;62.53;;;58.13;;
47381;SDS011;33128;51.580;5.170;2022-12-18T00:58:51;64.07;;;59.08;;
47381;SDS011;33128;51.580;5.170;2022-12-18T01:01:16;64.20;;;59.85;;
47381;SDS011;33128;51.580;5.170;2022-12-18T01:03:42;64.07;;;59.20;;
47381;SDS011;33128;51.580;5.170;2022-12-18T01:06:10;62.42;;;58.00;;
47381;SDS011;33128;51.580;5.170;2022-12-18T01:08:37;62.88;;;58.60;;
47381;SDS011;33128;51.580;5.170;2022-12-18T01:11:22;63.50;;;58.90;;
47381;SDS011;33128;51.580;5.170;2022-12-18T01:13:51;63.75;;;59.35;;
47381;SDS011;33128;51.580;5.170;2022-12-18T01:16:18;65.90;;;60.53;;
47381;SDS011;33128;51.580;5.170;2022-12-18T01:18:44;64.72;;;60.03;;
47381;SDS011;33128;51.580;5.170;2022-12-18T01:21:11;63.83;;;59.60;;
47381;SDS011;33128;51.580;5.170;2022-12-18T01:23:41;63.35;;;58.78;;
47381;SDS011;33128;51.580;5.170;2022-12-18T01:26:10;63.60;;;59.15;;
47381;SDS011;33128;51.580;5.170;2022-12-18T01:28:41;64.43;;;60.13;;
47381;SDS011;33128;51.580;5.170;2022-12-18T01:31:09;64.35;;;59.85;;
47381;SDS011;33128;51.580;5.170;2022-12-18T01:33:39;65.07;;;60.38;;
47381;SDS011;33128;51.580;5.170;2022-12-18T01:36:15;65.70;;;61.08;;
47381;SDS011;33128;51.580;5.170;2022-12-18T01:38:42;64.70;;;60.60;;
47381;SDS011;33128;51.580;5.170;2022-12-18T01:41:08;65.57;;;60.97;;
47381;SDS011;33128;51.580;5.170;2022-12-18T01:43:41;65.22;;;60.92;;
47381;SDS011;33128;51.580;5.170;2022-12-18T01:46:07;64.35;;;59.97;;
47381;SDS011;33128;51.580;5.170;2022-12-18T01:48:32;67.07;;;62.28;;
47381;SDS011;33128;51.580;5.170;2022-12-18T01:50:58;64.68;;;60.10;;
47381;SDS011;33128;51.580;5.170;2022-12-18T01:53:25;66.60;;;62.17;;
47381;SDS011;33128;51.580;5.170;2022-12-18T01:55:52;65.50;;;60.75;;
47381;SDS011;33128;51.580;5.170;2022-12-18T01:58:20;66.63;;;61.55;;
47381;SDS011;33128;51.580;5.170;2022-12-18T02:00:55;67.80;;;63.35;;
47381;SDS011;33128;51.580;5.170;2022-12-18T02:03:20;63.88;;;59.25;;
47381;SDS011;33128;51.580;5.170;2022-12-18T02:05:56;65.20;;;60.85;;
47381;SDS011;33128;51.580;5.170;2022-12-18T02:11:06;65.25;;;61.00;;
47381;SDS011;33128;51.580;5.170;2022-12-18T02:21:55;64.50;;;60.40;;
47381;SDS011;33128;51.580;5.170;2022-12-18T02:27:11;64.95;;;60.67;;
47381;SDS011;33128;51.580;5.170;2022-12-18T02:29:39;65.32;;;60.78;;
47381;SDS011;33128;51.580;5.170;2022-12-18T02:32:11;65.47;;;61.22;;
47381;SDS011;33128;51.580;5.170;2022-12-18T02:34:40;67.18;;;62.42;;
47381;SDS011;33128;51.580;5.170;2022-12-18T02:37:10;64.75;;;60.50;;
47381;SDS011;33128;51.580;5.170;2022-12-18T02:39:40;62.80;;;58.90;;
47381;SDS011;33128;51.580;5.170;2022-12-18T02:42:08;64.70;;;60.13;;
47381;SDS011;33128;51.580;5.170;2022-12-18T02:44:35;62.88;;;59.00;;
47381;SDS011;33128;51.580;5.170;2022-12-18T02:47:11;67.18;;;62.70;;
47381;SDS011;33128;51.580;5.170;2022-12-18T02:58:04;63.92;;;60.15;;
47381;SDS011;33128;51.580;5.170;2022-12-18T03:00:56;64.32;;;60.78;;
47381;SDS011;33128;51.580;5.170;2022-12-18T03:03:38;65.63;;;61.42;;
47381;SDS011;33128;51.580;5.170;2022-12-18T03:06:23;63.97;;;60.17;;
47381;SDS011;33128;51.580;5.170;2022-12-18T03:08:55;64.30;;;60.22;;
47381;SDS011;33128;51.580;5.170;2022-12-18T03:11:23;63.13;;;59.55;;
47381;SDS011;33128;51.580;5.170;2022-12-18T03:14:09;67.20;;;62.63;;
47381;SDS011;33128;51.580;5.170;2022-12-18T03:16:38;64.45;;;60.13;;
47381;SDS011;33128;51.580;5.170;2022-12-18T03:19:10;66.65;;;62.45;;
47381;SDS011;33128;51.580;5.170;2022-12-18T03:21:42;66.40;;;61.75;;
47381;SDS011;33128;51.580;5.170;2022-12-18T03:24:10;65.22;;;61.20;;
47381;SDS011;33128;51.580;5.170;2022-12-18T03:26:36;65.18;;;61.22;;
47381;SDS011;33128;51.580;5.170;2022-12-18T03:29:08;66.20;;;61.83;;
47381;SDS011;33128;51.580;5.170;2022-12-18T03:31:40;65.72;;;61.90;;
47381;SDS011;33128;51.580;5.170;2022-12-18T03:34:15;68.00;;;63.20;;
47381;SDS011;33128;51.580;5.170;2022-12-18T03:36:48;66.18;;;61.47;;
47381;SDS011;33128;51.580;5.170;2022-12-18T03:39:14;64.88;;;60.58;;
47381;SDS011;33128;51.580;5.170;2022-12-18T03:42:27;64.53;;;60.78;;
47381;SDS011;33128;51.580;5.170;2022-12-18T03:44:47;66.90;;;62.53;;
47381;SDS011;33128;51.580;5.170;2022-12-18T03:47:19;64.38;;;60.50;;
47381;SDS011;33128;51.580;5.170;2022-12-18T03:52:47;64.07;;;60.22;;
47381;SDS011;33128;51.580;5.170;2022-12-18T03:55:14;65.88;;;61.55;;
47381;SDS011;33128;51.580;5.170;2022-12-18T03:57:41;67.82;;;63.67;;
47381;SDS011;33128;51.580;5.170;2022-12-18T04:00:10;65.07;;;61.33;;
47381;SDS011;33128;51.580;5.170;2022-12-18T04:02:38;64.93;;;61.22;;
47381;SDS011;33128;51.580;5.170;2022-12-18T04:05:08;64.68;;;60.90;;
47381;SDS011;33128;51.580;5.170;2022-12-18T04:07:35;63.90;;;60.38;;
47381;SDS011;33128;51.580;5.170;2022-12-18T04:10:03;62.92;;;59.33;;
47381;SDS011;33128;51.580;5.170;2022-12-18T04:12:32;61.70;;;58.13;;
47381;SDS011;33128;51.580;5.170;2022-12-18T04:14:57;63.63;;;59.70;;
47381;SDS011;33128;51.580;5.170;2022-12-18T04:17:23;60.72;;;57.10;;
47381;SDS011;33128;51.580;5.170;2022-12-18T04:19:49;65.40;;;61.33;;
47381;SDS011;33128;51.580;5.170;2022-12-18T04:22:15;65.88;;;61.65;;
47381;SDS011;33128;51.580;5.170;2022-12-18T04:24:40;65.05;;;60.58;;
47381;SDS011;33128;51.580;5.170;2022-12-18T04:27:06;65.97;;;61.75;;
47381;SDS011;33128;51.580;5.170;2022-12-18T04:29:31;66.45;;;62.72;;
47381;SDS011;33128;51.580;5.170;2022-12-18T04:31:57;70.18;;;65.47;;
47381;SDS011;33128;51.580;5.170;2022-12-18T04:34:22;71.25;;;66.57;;
47381;SDS011;33128;51.580;5.170;2022-12-18T04:36:48;68.30;;;64.07;;
47381;SDS011;33128;51.580;5.170;2022-12-18T04:39:16;70.03;;;65.38;;
47381;SDS011;33128;51.580;5.170;2022-12-18T04:41:42;71.95;;;66.72;;
47381;SDS011;33128;51.580;5.170;2022-12-18T04:44:08;70.03;;;65.80;;
47381;SDS011;33128;51.580;5.170;2022-12-18T04:46:33;70.43;;;65.63;;
47381;SDS011;33128;51.580;5.170;2022-12-18T04:48:59;68.65;;;64.57;;
47381;SDS011;33128;51.580;5.170;2022-12-18T04:51:24;69.03;;;65.07;;
47381;SDS011;33128;51.580;5.170;2022-12-18T04:53:50;70.78;;;65.70;;
47381;SDS011;33128;51.580;5.170;2022-12-18T04:56:15;69.07;;;64.60;;
47381;SDS011;33128;51.580;5.170;2022-12-18T04:58:42;68.15;;;64.25;;
47381;SDS011;33128;51.580;5.170;2022-12-18T05:01:12;67.00;;;62.88;;
47381;SDS011;33128;51.580;5.170;2022-12-18T05:03:39;66.93;;;62.22;;
47381;SDS011;33128;51.580;5.170;2022-12-18T05:06:08;66.55;;;62.30;;
47381;SDS011;33128;51.580;5.170;2022-12-18T05:08:34;68.85;;;63.67;;
47381;SDS011;33128;51.580;5.170;2022-12-18T05:11:07;65.88;;;61.38;;
47381;SDS011;33128;51.580;5.170;2022-12-18T05:13:34;66.95;;;61.88;;
47381;SDS011;33128;51.580;5.170;2022-12-18T05:16:00;67.53;;;63.33;;
47381;SDS011;33128;51.580;5.170;2022-12-18T05:18:26;67.75;;;63.42;;
47381;SDS011;33128;51.580;5.170;2022-12-18T05:20:52;67.05;;;62.97;;
47381;SDS011;33128;51.580;5.170;2022-12-18T05:23:19;67.20;;;62.55;;
47381;SDS011;33128;51.580;5.170;2022-12-18T05:25:51;65.53;;;61.30;;
47381;SDS011;33128;51.580;5.170;2022-12-18T05:28:28;65.63;;;61.38;;
47381;SDS011;33128;51.580;5.170;2022-12-18T05:30:56;65.18;;;61.50;;
47381;SDS011;33128;51.580;5.170;2022-12-18T05:33:23;65.97;;;61.55;;
47381;SDS011;33128;51.580;5.170;2022-12-18T05:35:51;66.75;;;62.53;;
47381;SDS011;33128;51.580;5.170;2022-12-18T05:38:17;66.25;;;62.03;;
47381;SDS011;33128;51.580;5.170;2022-12-18T05:40:43;67.40;;;62.92;;
47381;SDS011;33128;51.580;5.170;2022-12-18T05:43:09;65.47;;;61.55;;
47381;SDS011;33128;51.580;5.170;2022-12-18T05:45:38;63.95;;;59.88;;
47381;SDS011;33128;51.580;5.170;2022-12-18T05:48:05;63.78;;;59.83;;
47381;SDS011;33128;51.580;5.170;2022-12-18T05:50:33;64.60;;;60.70;;
47381;SDS011;33128;51.580;5.170;2022-12-18T05:53:00;63.17;;;59.22;;
47381;SDS011;33128;51.580;5.170;2022-12-18T05:55:26;63.22;;;58.67;;
47381;SDS011;33128;51.580;5.170;2022-12-18T05:57:51;63.03;;;59.30;;
47381;SDS011;33128;51.580;5.170;2022-12-18T06:00:17;62.40;;;58.63;;
47381;SDS011;33128;51.580;5.170;2022-12-18T06:02:45;62.40;;;58.55;;
47381;SDS011;33128;51.580;5.170;2022-12-18T06:05:12;64.20;;;60.17;;
47381;SDS011;33128;51.580;5.170;2022-12-18T06:07:37;65.22;;;60.75;;
47381;SDS011;33128;51.580;5.170;2022-12-18T06:10:03;62.85;;;59.35;;
47381;SDS011;33128;51.580;5.170;2022-12-18T06:12:29;65.57;;;60.55;;
47381;SDS011;33128;51.580;5.170;2022-12-18T06:14:54;62.13;;;58.22;;
47381;SDS011;33128;51.580;5.170;2022-12-18T06:17:20;63.95;;;60.13;;
47381;SDS011;33128;51.580;5.170;2022-12-18T06:19:45;62.53;;;58.00;;
47381;SDS011;33128;51.580;5.170;2022-12-18T06:22:11;61.53;;;57.97;;
47381;SDS011;33128;51.580;5.170;2022-12-18T06:24:36;62.38;;;58.35;;
47381;SDS011;33128;51.580;5.170;2022-12-18T06:27:02;63.20;;;59.15;;
47381;SDS011;33128;51.580;5.170;2022-12-18T06:29:28;64.25;;;59.92;;
47381;SDS011;33128;51.580;5.170;2022-12-18T06:31:53;62.42;;;58.63;;
47381;SDS011;33128;51.580;5.170;2022-12-18T06:34:19;61.80;;;57.90;;
47381;SDS011;33128;51.580;5.170;2022-12-18T06:36:44;63.45;;;59.45;;
47381;SDS011;33128;51.580;5.170;2022-12-18T06:39:10;61.80;;;57.58;;
47381;SDS011;33128;51.580;5.170;2022-12-18T06:41:35;60.05;;;56.22;;
47381;SDS011;33128;51.580;5.170;2022-12-18T06:44:01;61.97;;;58.13;;
47381;SDS011;33128;51.580;5.170;2022-12-18T06:46:27;66.63;;;62.28;;
47381;SDS011;33128;51.580;5.170;2022-12-18T06:48:55;59.70;;;56.35;;
47381;SDS011;33128;51.580;5.170;2022-12-18T06:51:22;60.58;;;56.83;;
47381;SDS011;33128;51.580;5.170;2022-12-18T06:53:48;62.90;;;58.42;;
47381;SDS011;33128;51.580;5.170;2022-12-18T06:56:14;63.65;;;59.65;;
47381;SDS011;33128;51.580;5.170;2022-12-18T06:58:40;61.70;;;57.95;;
47381;SDS011;33128;51.580;5.170;2022-12-18T07:01:08;61.17;;;57.40;;
47381;SDS011;33128;51.580;5.170;2022-12-18T07:03:35;59.20;;;55.80;;
47381;SDS011;33128;51.580;5.170;2022-12-18T07:06:01;61.58;;;57.60;;
47381;SDS011;33128;51.580;5.170;2022-12-18T07:08:29;61.90;;;58.60;;
47381;SDS011;33128;51.580;5.170;2022-12-18T07:10:55;63.10;;;59.13;;
47381;SDS011;33128;51.580;5.170;2022-12-18T07:13:21;61.75;;;58.17;;
47381;SDS011;33128;51.580;5.170;2022-12-18T07:15:46;60.67;;;57.03;;
47381;SDS011;33128;51.580;5.170;2022-12-18T07:18:12;62.75;;;58.85;;
47381;SDS011;33128;51.580;5.170;2022-12-18T07:20:38;60.33;;;56.58;;
47381;SDS011;33128;51.580;5.170;2022-12-18T07:23:04;57.13;;;53.65;;
47381;SDS011;33128;51.580;5.170;2022-12-18T07:25:36;58.17;;;54.97;;
47381;SDS011;33128;51.580;5.170;2022-12-18T07:28:02;57.83;;;54.17;;
47381;SDS011;33128;51.580;5.170;2022-12-18T07:30:28;55.92;;;52.53;;
47381;SDS011;33128;51.580;5.170;2022-12-18T07:32:53;56.85;;;53.25;;
47381;SDS011;33128;51.580;5.170;2022-12-18T07:35:19;55.78;;;52.78;;
47381;SDS011;33128;51.580;5.170;2022-12-18T07:37:45;57.58;;;54.28;;
47381;SDS011;33128;51.580;5.170;2022-12-18T07:40:10;50.22;;;47.33;;
47381;SDS011;33128;51.580;5.170;2022-12-18T07:42:36;55.80;;;52.33;;
47381;SDS011;33128;51.580;5.170;2022-12-18T07:45:02;54.28;;;51.08;;
47381;SDS011;33128;51.580;5.170;2022-12-18T07:47:28;55.63;;;52.35;;
47381;SDS011;33128;51.580;5.170;2022-12-18T07:50:04;52.72;;;49.67;;
47381;SDS011;33128;51.580;5.170;2022-12-18T07:52:33;51.63;;;48.20;;
47381;SDS011;33128;51.580;5.170;2022-12-18T07:54:58;49.92;;;46.85;;
47381;SDS011;33128;51.580;5.170;2022-12-18T07:57:24;49.50;;;46.08;;
47381;SDS011;33128;51.580;5.170;2022-12-18T07:59:49;50.50;;;47.67;;
47381;SDS011;33128;51.580;5.170;2022-12-18T08:02:15;49.95;;;46.92;;
47381;SDS011;33128;51.580;5.170;2022-12-18T08:04:40;49.40;;;46.30;;
47381;SDS011;33128;51.580;5.170;2022-12-18T08:07:09;47.95;;;45.05;;
47381;SDS011;33128;51.580;5.170;2022-12-18T08:09:34;47.15;;;44.25;;
47381;SDS011;33128;51.580;5.170;2022-12-18T08:12:00;45.13;;;42.58;;
47381;SDS011;33128;51.580;5.170;2022-12-18T08:14:25;45.60;;;43.05;;
47381;SDS011;33128;51.580;5.170;2022-12-18T08:16:51;45.15;;;42.28;;
47381;SDS011;33128;51.580;5.170;2022-12-18T08:19:17;45.38;;;42.75;;
47381;SDS011;33128;51.580;5.170;2022-12-18T08:21:42;44.55;;;42.13;;
47381;SDS011;33128;51.580;5.170;2022-12-18T08:24:08;45.58;;;42.63;;
47381;SDS011;33128;51.580;5.170;2022-12-18T08:26:35;43.08;;;40.28;;
47381;SDS011;33128;51.580;5.170;2022-12-18T08:29:00;42.35;;;39.63;;
47381;SDS011;33128;51.580;5.170;2022-12-18T08:31:27;44.42;;;41.88;;
47381;SDS011;33128;51.580;5.170;2022-12-18T08:33:54;41.65;;;39.45;;
47381;SDS011;33128;51.580;5.170;2022-12-18T08:36:20;43.42;;;41.03;;
47381;SDS011;33128;51.580;5.170;2022-12-18T08:38:46;43.50;;;40.78;;
47381;SDS011;33128;51.580;5.170;2022-12-18T08:41:14;42.55;;;40.22;;
47381;SDS011;33128;51.580;5.170;2022-12-18T08:43:41;41.90;;;39.58;;
47381;SDS011;33128;51.580;5.170;2022-12-18T08:46:26;43.17;;;40.65;;
47381;SDS011;33128;51.580;5.170;2022-12-18T08:48:55;45.88;;;43.38;;
47381;SDS011;33128;51.580;5.170;2022-12-18T08:51:21;44.80;;;42.17;;
47381;SDS011;33128;51.580;5.170;2022-12-18T08:53:47;42.05;;;39.63;;
47381;SDS011;33128;51.580;5.170;2022-12-18T08:56:12;40.25;;;37.75;;
47381;SDS011;33128;51.580;5.170;2022-12-18T08:58:39;41.95;;;39.65;;
47381;SDS011;33128;51.580;5.170;2022-12-18T09:01:06;42.47;;;39.50;;
47381;SDS011;33128;51.580;5.170;2022-12-18T09:03:37;45.42;;;42.53;;
47381;SDS011;33128;51.580;5.170;2022-12-18T09:06:03;44.65;;;42.03;;
47381;SDS011;33128;51.580;5.170;2022-12-18T09:08:29;41.67;;;39.38;;
47381;SDS011;33128;51.580;5.170;2022-12-18T09:10:55;46.78;;;43.80;;
47381;SDS011;33128;51.580;5.170;2022-12-18T09:13:21;44.10;;;41.47;;
47381;SDS011;33128;51.580;5.170;2022-12-18T09:15:48;44.58;;;41.88;;
47381;SDS011;33128;51.580;5.170;2022-12-18T09:18:16;42.35;;;40.05;;
47381;SDS011;33128;51.580;5.170;2022-12-18T09:20:43;39.25;;;37.13;;
47381;SDS011;33128;51.580;5.170;2022-12-18T09:23:09;41.80;;;39.28;;
47381;SDS011;33128;51.580;5.170;2022-12-18T09:25:35;44.65;;;41.72;;
47381;SDS011;33128;51.580;5.170;2022-12-18T09:28:02;44.15;;;41.40;;
47381;SDS011;33128;51.580;5.170;2022-12-18T09:30:29;44.67;;;41.70;;
47381;SDS011;33128;51.580;5.170;2022-12-18T09:32:55;44.50;;;41.80;;
47381;SDS011;33128;51.580;5.170;2022-12-18T09:35:24;41.30;;;38.67;;
47381;SDS011;33128;51.580;5.170;2022-12-18T09:37:50;42.03;;;39.65;;
47381;SDS011;33128;51.580;5.170;2022-12-18T09:40:16;40.53;;;38.15;;
47381;SDS011;33128;51.580;5.170;2022-12-18T09:42:45;43.22;;;40.83;;
47381;SDS011;33128;51.580;5.170;2022-12-18T09:45:18;42.47;;;39.65;;
47381;SDS011;33128;51.580;5.170;2022-12-18T09:47:45;43.10;;;40.50;;
47381;SDS011;33128;51.580;5.170;2022-12-18T09:52:54;43.75;;;41.28;;
47381;SDS011;33128;51.580;5.170;2022-12-18T09:55:29;42.78;;;40.35;;
47381;SDS011;33128;51.580;5.170;2022-12-18T09:58:17;41.22;;;38.55;;
47381;SDS011;33128;51.580;5.170;2022-12-18T10:00:51;43.28;;;40.53;;
47381;SDS011;33128;51.580;5.170;2022-12-18T10:03:17;44.00;;;41.05;;
47381;SDS011;33128;51.580;5.170;2022-12-18T10:05:46;45.50;;;42.67;;
47381;SDS011;33128;51.580;5.170;2022-12-18T10:14:11;41.83;;;39.22;;
47381;SDS011;33128;51.580;5.170;2022-12-18T10:20:10;41.75;;;39.42;;
47381;SDS011;33128;51.580;5.170;2022-12-18T10:22:46;42.95;;;40.55;;
47381;SDS011;33128;51.580;5.170;2022-12-18T10:25:17;42.80;;;40.25;;
47381;SDS011;33128;51.580;5.170;2022-12-18T10:27:46;40.70;;;38.38;;
47381;SDS011;33128;51.580;5.170;2022-12-18T10:30:14;40.50;;;38.20;;
47381;SDS011;33128;51.580;5.170;2022-12-18T10:32:41;39.20;;;37.10;;
47381;SDS011;33128;51.580;5.170;2022-12-18T10:35:07;41.28;;;38.95;;
47381;SDS011;33128;51.580;5.170;2022-12-18T10:37:58;38.92;;;36.88;;
47381;SDS011;33128;51.580;5.170;2022-12-18T10:40:26;37.17;;;34.95;;
47381;SDS011;33128;51.580;5.170;2022-12-18T10:43:11;40.22;;;37.65;;
47381;SDS011;33128;51.580;5.170;2022-12-18T10:45:37;38.83;;;36.53;;
47381;SDS011;33128;51.580;5.170;2022-12-18T10:48:04;39.25;;;37.10;;
47381;SDS011;33128;51.580;5.170;2022-12-18T10:50:34;43.33;;;40.72;;
47381;SDS011;33128;51.580;5.170;2022-12-18T10:53:03;46.25;;;43.40;;
47381;SDS011;33128;51.580;5.170;2022-12-18T10:55:33;44.75;;;42.35;;
47381;SDS011;33128;51.580;5.170;2022-12-18T10:58:13;47.38;;;44.50;;
47381;SDS011;33128;51.580;5.170;2022-12-18T11:08:56;46.05;;;43.30;;
47381;SDS011;33128;51.580;5.170;2022-12-18T11:11:23;45.33;;;42.70;;
47381;SDS011;33128;51.580;5.170;2022-12-18T11:16:26;44.78;;;42.10;;
47381;SDS011;33128;51.580;5.170;2022-12-18T11:18:53;46.75;;;43.28;;
47381;SDS011;33128;51.580;5.170;2022-12-18T11:21:20;44.35;;;41.83;;
47381;SDS011;33128;51.580;5.170;2022-12-18T11:23:52;44.65;;;42.03;;
47381;SDS011;33128;51.580;5.170;2022-12-18T11:26:18;42.08;;;39.72;;
47381;SDS011;33128;51.580;5.170;2022-12-18T11:28:52;42.58;;;40.28;;
47381;SDS011;33128;51.580;5.170;2022-12-18T11:31:34;44.78;;;42.25;;
47381;SDS011;33128;51.580;5.170;2022-12-18T11:34:12;46.17;;;43.03;;
47381;SDS011;33128;51.580;5.170;2022-12-18T11:36:55;44.55;;;41.95;;
47381;SDS011;33128;51.580;5.170;2022-12-18T11:39:42;42.05;;;39.75;;
47381;SDS011;33128;51.580;5.170;2022-12-18T11:45:00;39.80;;;37.60;;
47381;SDS011;33128;51.580;5.170;2022-12-18T11:50:07;40.03;;;37.85;;
47381;SDS011;33128;51.580;5.170;2022-12-18T11:52:51;40.33;;;37.78;;
47381;SDS011;33128;51.580;5.170;2022-12-18T12:09:45;38.47;;;36.33;;
47381;SDS011;33128;51.580;5.170;2022-12-18T12:12:34;38.40;;;36.30;;
47381;SDS011;33128;51.580;5.170;2022-12-18T12:15:13;39.38;;;37.05;;
47381;SDS011;33128;51.580;5.170;2022-12-18T12:26:12;40.35;;;37.75;;
47381;SDS011;33128;51.580;5.170;2022-12-18T12:29:01;39.53;;;37.13;;
47381;SDS011;33128;51.580;5.170;2022-12-18T12:39:30;37.80;;;35.70;;
47381;SDS011;33128;51.580;5.170;2022-12-18T12:42:06;36.60;;;34.50;;
47381;SDS011;33128;51.580;5.170;2022-12-18T12:45:03;36.78;;;34.58;;
47381;SDS011;33128;51.580;5.170;2022-12-18T12:47:36;37.78;;;35.63;;
47381;SDS011;33128;51.580;5.170;2022-12-18T12:50:06;36.05;;;33.83;;
47381;SDS011;33128;51.580;5.170;2022-12-18T12:52:50;36.88;;;34.78;;
47381;SDS011;33128;51.580;5.170;2022-12-18T12:55:19;36.55;;;34.45;;
47381;SDS011;33128;51.580;5.170;2022-12-18T13:00:21;37.50;;;35.30;;
47381;SDS011;33128;51.580;5.170;2022-12-18T13:07:55;39.72;;;37.38;;
47381;SDS011;33128;51.580;5.170;2022-12-18T13:10:34;38.55;;;36.30;;
47381;SDS011;33128;51.580;5.170;2022-12-18T13:13:08;37.85;;;35.65;;
47381;SDS011;33128;51.580;5.170;2022-12-18T13:15:42;41.72;;;39.35;;
47381;SDS011;33128;51.580;5.170;2022-12-18T13:20:45;38.95;;;36.65;;
47381;SDS011;33128;51.580;5.170;2022-12-18T13:34:09;37.55;;;35.40;;
47381;SDS011;33128;51.580;5.170;2022-12-18T13:36:44;40.63;;;38.17;;
47381;SDS011;33128;51.580;5.170;2022-12-18T13:41:48;42.15;;;39.30;;
47381;SDS011;33128;51.580;5.170;2022-12-18T13:46:57;39.25;;;37.08;;
47381;SDS011;33128;51.580;5.170;2022-12-18T13:49:36;40.83;;;38.55;;
47381;SDS011;33128;51.580;5.170;2022-12-18T13:54:56;43.58;;;40.97;;
47381;SDS011;33128;51.580;5.170;2022-12-18T14:02:47;41.65;;;39.25;;
47381;SDS011;33128;51.580;5.170;2022-12-18T14:08:08;43.10;;;40.70;;
47381;SDS011;33128;51.580;5.170;2022-12-18T14:10:39;41.53;;;39.20;;
47381;SDS011;33128;51.580;5.170;2022-12-18T14:13:10;40.70;;;38.45;;
47381;SDS011;33128;51.580;5.170;2022-12-18T14:15:51;43.40;;;40.97;;
47381;SDS011;33128;51.580;5.170;2022-12-18T14:21:17;40.70;;;38.30;;
47381;SDS011;33128;51.580;5.170;2022-12-18T14:23:47;41.38;;;39.08;;
47381;SDS011;33128;51.580;5.170;2022-12-18T14:28:56;39.42;;;37.08;;
47381;SDS011;33128;51.580;5.170;2022-12-18T14:31:24;42.33;;;39.92;;
47381;SDS011;33128;51.580;5.170;2022-12-18T14:33:52;41.15;;;38.83;;
47381;SDS011;33128;51.580;5.170;2022-12-18T14:36:20;40.88;;;38.47;;
47381;SDS011;33128;51.580;5.170;2022-12-18T14:38:54;41.05;;;38.65;;
47381;SDS011;33128;51.580;5.170;2022-12-18T14:41:21;38.55;;;36.30;;
47381;SDS011;33128;51.580;5.170;2022-12-18T14:43:49;40.85;;;38.35;;
47381;SDS011;33128;51.580;5.170;2022-12-18T14:46:25;40.45;;;38.03;;
47381;SDS011;33128;51.580;5.170;2022-12-18T14:48:59;39.47;;;37.22;;
47381;SDS011;33128;51.580;5.170;2022-12-18T14:51:54;37.60;;;35.30;;
47381;SDS011;33128;51.580;5.170;2022-12-18T14:54:22;39.67;;;37.22;;
47381;SDS011;33128;51.580;5.170;2022-12-18T14:56:49;39.20;;;37.00;;
47381;SDS011;33128;51.580;5.170;2022-12-18T14:59:20;39.47;;;37.15;;
47381;SDS011;33128;51.580;5.170;2022-12-18T15:04:35;42.33;;;39.75;;
47381;SDS011;33128;51.580;5.170;2022-12-18T15:07:05;40.45;;;38.15;;
47381;SDS011;33128;51.580;5.170;2022-12-18T15:09:37;40.38;;;38.05;;
47381;SDS011;33128;51.580;5.170;2022-12-18T15:12:04;40.85;;;38.60;;
47381;SDS011;33128;51.580;5.170;2022-12-18T15:14:44;41.45;;;39.05;;
47381;SDS011;33128;51.580;5.170;2022-12-18T15:17:17;41.50;;;39.10;;
47381;SDS011;33128;51.580;5.170;2022-12-18T15:19:50;42.83;;;40.22;;
47381;SDS011;33128;51.580;5.170;2022-12-18T15:22:25;40.13;;;37.72;;
47381;SDS011;33128;51.580;5.170;2022-12-18T15:24:57;41.97;;;39.28;;
47381;SDS011;33128;51.580;5.170;2022-12-18T15:30:03;40.70;;;38.30;;
47381;SDS011;33128;51.580;5.170;2022-12-18T15:32:43;41.13;;;38.55;;
47381;SDS011;33128;51.580;5.170;2022-12-18T15:37:44;40.13;;;37.72;;
47381;SDS011;33128;51.580;5.170;2022-12-18T15:40:14;39.00;;;36.58;;
47381;SDS011;33128;51.580;5.170;2022-12-18T15:42:41;41.60;;;39.13;;
47381;SDS011;33128;51.580;5.170;2022-12-18T15:45:26;40.03;;;37.83;;
47381;SDS011;33128;51.580;5.170;2022-12-18T15:47:55;42.15;;;39.75;;
47381;SDS011;33128;51.580;5.170;2022-12-18T15:50:23;43.67;;;41.30;;
47381;SDS011;33128;51.580;5.170;2022-12-18T15:52:50;42.97;;;40.42;;
47381;SDS011;33128;51.580;5.170;2022-12-18T15:55:23;41.13;;;38.63;;
47381;SDS011;33128;51.580;5.170;2022-12-18T15:58:08;39.05;;;36.83;;
47381;SDS011;33128;51.580;5.170;2022-12-18T16:00:37;42.28;;;39.85;;
47381;SDS011;33128;51.580;5.170;2022-12-18T16:03:04;41.15;;;38.90;;
47381;SDS011;33128;51.580;5.170;2022-12-18T16:05:31;41.70;;;39.05;;
47381;SDS011;33128;51.580;5.170;2022-12-18T16:07:57;41.20;;;38.65;;
47381;SDS011;33128;51.580;5.170;2022-12-18T16:10:24;40.63;;;38.22;;
47381;SDS011;33128;51.580;5.170;2022-12-18T16:12:50;41.42;;;38.83;;
47381;SDS011;33128;51.580;5.170;2022-12-18T16:15:16;40.25;;;38.00;;
47381;SDS011;33128;51.580;5.170;2022-12-18T16:17:42;41.78;;;39.28;;
47381;SDS011;33128;51.580;5.170;2022-12-18T16:20:12;41.63;;;39.40;;
47381;SDS011;33128;51.580;5.170;2022-12-18T16:22:42;41.92;;;39.20;;
47381;SDS011;33128;51.580;5.170;2022-12-18T16:25:18;39.47;;;37.17;;
47381;SDS011;33128;51.580;5.170;2022-12-18T16:27:44;40.80;;;37.65;;
47381;SDS011;33128;51.580;5.170;2022-12-18T16:30:13;37.97;;;35.88;;
47381;SDS011;33128;51.580;5.170;2022-12-18T16:32:41;39.13;;;36.72;;
47381;SDS011;33128;51.580;5.170;2022-12-18T16:35:09;39.63;;;37.20;;
47381;SDS011;33128;51.580;5.170;2022-12-18T16:37:39;41.63;;;39.17;;
47381;SDS011;33128;51.580;5.170;2022-12-18T16:40:06;40.13;;;37.85;;
47381;SDS011;33128;51.580;5.170;2022-12-18T16:42:34;39.55;;;37.25;;
47381;SDS011;33128;51.580;5.170;2022-12-18T16:45:02;39.35;;;36.97;;
47381;SDS011;33128;51.580;5.170;2022-12-18T16:47:31;39.50;;;36.92;;
47381;SDS011;33128;51.580;5.170;2022-12-18T16:49:56;41.72;;;39.15;;